Time;durP1;ratioP1;P1;durP2;ratioP2;P2;SDS_P1;SDS_P2;PMS_P1;PMS_P2;Temp;Humidity;BMP_temperature;BMP_pressure;BME280_temperature;BME280_humidity;BME280_pressure;Samples;Min_cycle;Max_cycle;Signal;HPM_P1;HPM_P2
2022/10/19 00:02:18;;;;;;;3.67;0.60;;;;;;;;;;5126773;28;20051;-72
2022/10/19 00:04:48;;;;;;;1.38;0.82;;;;;;;;;;5128069;27;20047;-72
2022/10/19 00:07:18;;;;;;;4.97;0.93;;;;;;;;;;5129591;28;20044;-72
2022/10/19 00:09:48;;;;;;;2.45;0.40;;;;;;;;;;5069591;27;1657943;-71
2022/10/19 00:12:18;;;;;;;3.88;0.93;;;;;;;;;;5128422;27;20042;-73
2022/10/19 00:14:47;;;;;;;3.33;0.95;;;;;;;;;;5129803;27;20502;-72
2022/10/19 00:17:17;;;;;;;3.95;0.70;;;;;;;;;;5129358;27;20046;-73
2022/10/19 00:19:47;;;;;;;2.97;0.73;;;;;;;;;;5129468;27;20046;-73
2022/10/19 00:22:17;;;;;;;3.35;1.00;;;;;;;;;;5129520;27;20406;-72
2022/10/19 00:24:47;;;;;;;5.40;0.90;;;;;;;;;;5129660;27;20051;-72
2022/10/19 00:27:17;;;;;;;2.15;0.73;;;;;;;;;;5129697;27;20044;-72
2022/10/19 00:29:47;;;;;;;4.80;0.80;;;;;;;;;;5125280;27;20043;-75
2022/10/19 00:32:17;;;;;;;1.85;0.90;;;;;;;;;;5128750;27;20058;-73
2022/10/19 00:34:46;;;;;;;6.18;1.05;;;;;;;;;;5125126;27;20054;-73
2022/10/19 00:37:16;;;;;;;3.03;1.15;;;;;;;;;;5128063;27;20524;-73
2022/10/19 00:39:46;;;;;;;1.55;0.85;;;;;;;;;;5126268;27;20035;-71
2022/10/19 00:42:16;;;;;;;4.10;1.00;;;;;;;;;;5128464;27;20520;-73
2022/10/19 00:44:47;;;;;;;4.28;1.00;;;;;;;;;;5129913;27;20517;-75
2022/10/19 00:47:22;;;;;;;1.85;0.80;;;;;;;;;;5128541;27;20054;-73
2022/10/19 00:49:53;;;;;;;4.53;1.23;;;;;;;;;;5126112;27;20042;-72
2022/10/19 00:52:24;;;;;;;2.58;0.93;;;;;;;;;;5128535;27;20045;-73
2022/10/19 00:54:57;;;;;;;3.53;0.80;;;;;;;;;;5125857;27;20038;-72
2022/10/19 00:57:29;;;;;;;2.95;0.98;;;;;;;;;;5128330;27;20545;-74
2022/10/19 01:00:00;;;;;;;3.53;0.80;;;;;;;;;;5128843;27;20615;-72
2022/10/19 01:02:30;;;;;;;2.38;0.77;;;;;;;;;;5129231;27;20043;-73
2022/10/19 01:05:01;;;;;;;1.80;0.65;;;;;;;;;;5129064;27;20419;-73
2022/10/19 01:07:31;;;;;;;2.63;1.02;;;;;;;;;;5129653;27;20047;-75
2022/10/19 01:10:03;;;;;;;1.45;0.90;;;;;;;;;;5128772;27;20132;-73
2022/10/19 01:12:46;;;;;;;1.90;0.82;;;;;;;;;;5128943;27;20043;-75
2022/10/19 01:15:22;;;;;;;2.50;0.80;;;;;;;;;;5127418;27;20058;-74
2022/10/19 01:18:04;;;;;;;1.95;0.80;;;;;;;;;;5126927;27;20061;-74
2022/10/19 01:21:00;;;;;;;4.32;1.23;;;;;;;;;;5127236;27;20054;-75
2022/10/19 01:23:36;;;;;;;2.58;1.02;;;;;;;;;;5127587;27;20051;-74
2022/10/19 01:26:12;;;;;;;1.13;0.70;;;;;;;;;;5126983;27;20050;-72
2022/10/19 01:29:02;;;;;;;3.63;0.82;;;;;;;;;;5125857;27;20438;-72
2022/10/19 01:32:08;;;;;;;0.80;0.77;;;;;;;;;;5128045;27;20443;-72
2022/10/19 01:34:50;;;;;;;2.13;0.80;;;;;;;;;;5123457;27;20055;-74
2022/10/19 01:37:44;;;;;;;0.57;0.50;;;;;;;;;;5127092;27;20510;-73
2022/10/19 01:40:39;;;;;;;2.22;0.82;;;;;;;;;;5127882;27;20051;-73
2022/10/19 01:43:34;;;;;;;1.92;0.77;;;;;;;;;;5128359;27;20540;-74
2022/10/19 01:46:25;;;;;;;3.38;0.65;;;;;;;;;;5128082;27;20410;-73
2022/10/19 01:49:15;;;;;;;4.28;0.63;;;;;;;;;;5128141;27;20051;-73
2022/10/19 01:51:55;;;;;;;5.22;1.25;;;;;;;;;;5127739;27;20065;-73
2022/10/19 01:54:30;;;;;;;2.58;0.90;;;;;;;;;;5128051;27;20039;-73
2022/10/19 01:57:03;;;;;;;2.35;0.88;;;;;;;;;;5128522;27;20524;-74
2022/10/19 01:59:35;;;;;;;1.52;1.10;;;;;;;;;;5128135;27;20047;-73
2022/10/19 02:02:08;;;;;;;4.18;1.00;;;;;;;;;;5127743;27;20047;-72
2022/10/19 02:04:40;;;;;;;3.30;0.85;;;;;;;;;;5127744;27;20055;-75
2022/10/19 02:07:11;;;;;;;2.38;0.90;;;;;;;;;;5127152;27;20051;-73
2022/10/19 02:09:41;;;;;;;4.25;0.90;;;;;;;;;;5127960;27;20046;-74
2022/10/19 02:12:11;;;;;;;2.35;1.00;;;;;;;;;;5127897;27;20058;-73
2022/10/19 02:14:49;;;;;;;4.70;1.05;;;;;;;;;;5127798;27;20058;-75
2022/10/19 02:17:24;;;;;;;5.13;1.08;;;;;;;;;;5127386;27;20051;-72
2022/10/19 02:19:54;;;;;;;3.17;1.25;;;;;;;;;;5127250;27;20047;-72
2022/10/19 02:22:24;;;;;;;2.25;1.23;;;;;;;;;;5127505;27;20462;-74
2022/10/19 02:24:54;;;;;;;3.78;1.35;;;;;;;;;;5127108;27;20039;-74
2022/10/19 02:27:24;;;;;;;3.15;1.13;;;;;;;;;;5127569;27;20046;-72
2022/10/19 02:29:54;;;;;;;2.65;1.00;;;;;;;;;;5126822;27;20062;-72
2022/10/19 02:32:25;;;;;;;2.30;1.27;;;;;;;;;;5127893;27;20043;-73
2022/10/19 02:34:57;;;;;;;2.63;0.98;;;;;;;;;;5127361;27;20043;-73
2022/10/19 02:37:26;;;;;;;3.30;0.77;;;;;;;;;;5127578;27;20046;-74
2022/10/19 02:39:58;;;;;;;5.55;0.95;;;;;;;;;;5127347;27;20050;-74
2022/10/19 02:42:39;;;;;;;3.78;1.25;;;;;;;;;;5127426;27;20087;-72
2022/10/19 02:45:25;;;;;;;1.70;0.80;;;;;;;;;;5127086;27;20039;-74
2022/10/19 02:47:59;;;;;;;1.45;1.00;;;;;;;;;;5125548;27;20055;-74
2022/10/19 02:50:30;;;;;;;3.17;1.23;;;;;;;;;;5127266;27;20047;-72
2022/10/19 02:53:00;;;;;;;4.15;1.30;;;;;;;;;;5127157;28;20497;-74
2022/10/19 02:55:30;;;;;;;3.42;1.02;;;;;;;;;;5127381;28;20047;-72
2022/10/19 02:58:01;;;;;;;5.95;1.85;;;;;;;;;;5127304;28;20047;-74
2022/10/19 03:00:31;;;;;;;2.13;0.95;;;;;;;;;;5127227;28;20521;-74
2022/10/19 03:03:02;;;;;;;4.78;1.85;;;;;;;;;;5125632;28;20541;-74
2022/10/19 03:05:32;;;;;;;4.35;1.20;;;;;;;;;;5127118;28;20054;-73
2022/10/19 03:08:02;;;;;;;4.10;1.65;;;;;;;;;;5126709;27;20066;-74
2022/10/19 03:10:32;;;;;;;4.15;1.60;;;;;;;;;;5126473;28;20055;-74
2022/10/19 03:13:01;;;;;;;3.35;1.20;;;;;;;;;;5126427;28;20058;-73
2022/10/19 03:15:31;;;;;;;4.88;1.13;;;;;;;;;;5126621;28;20054;-72
2022/10/19 03:18:01;;;;;;;4.43;1.30;;;;;;;;;;5127361;28;20047;-71
2022/10/19 03:20:31;;;;;;;3.50;1.10;;;;;;;;;;5126807;28;20451;-73
2022/10/19 03:23:00;;;;;;;4.35;1.50;;;;;;;;;;5126821;28;20043;-71
2022/10/19 03:25:30;;;;;;;4.72;1.10;;;;;;;;;;5127108;28;20040;-73
2022/10/19 03:28:00;;;;;;;2.22;1.05;;;;;;;;;;5127032;28;20039;-72
2022/10/19 03:30:30;;;;;;;4.43;1.13;;;;;;;;;;5127080;28;20046;-72
2022/10/19 03:33:00;;;;;;;6.35;1.10;;;;;;;;;;5127240;28;20043;-72
2022/10/19 03:35:29;;;;;;;3.70;0.98;;;;;;;;;;5126949;28;20051;-73
2022/10/19 03:37:59;;;;;;;4.97;1.38;;;;;;;;;;5126512;28;20050;-74
2022/10/19 03:40:29;;;;;;;7.80;1.15;;;;;;;;;;5126752;28;20043;-73
2022/10/19 03:42:58;;;;;;;2.20;1.30;;;;;;;;;;5126641;28;20054;-74
2022/10/19 03:45:28;;;;;;;5.38;1.38;;;;;;;;;;5126560;28;20050;-74
2022/10/19 03:47:58;;;;;;;2.88;1.23;;;;;;;;;;5126871;28;20051;-73
2022/10/19 03:50:27;;;;;;;4.32;1.30;;;;;;;;;;5126334;28;20038;-73
2022/10/19 03:52:57;;;;;;;4.10;1.40;;;;;;;;;;5128936;27;20043;-71
2022/10/19 03:55:27;;;;;;;4.63;0.93;;;;;;;;;;5130635;27;20043;-72
2022/10/19 03:57:57;;;;;;;2.22;1.17;;;;;;;;;;5130561;27;20043;-71
2022/10/19 04:00:27;;;;;;;3.40;1.30;;;;;;;;;;5130443;27;20047;-74
2022/10/19 04:03:00;;;;;;;5.50;1.10;;;;;;;;;;5129505;27;20399;-72
2022/10/19 04:05:30;;;;;;;5.32;1.17;;;;;;;;;;5130482;27;20051;-74
2022/10/19 04:07:59;;;;;;;7.38;1.13;;;;;;;;;;5128901;27;20059;-74
2022/10/19 04:10:30;;;;;;;4.93;1.27;;;;;;;;;;5130396;27;20504;-72
2022/10/19 04:13:00;;;;;;;5.18;1.30;;;;;;;;;;5130076;27;20054;-71
2022/10/19 04:15:30;;;;;;;5.50;1.20;;;;;;;;;;5129621;27;20524;-75
2022/10/19 04:18:00;;;;;;;2.30;1.25;;;;;;;;;;5129944;27;20043;-72
2022/10/19 04:20:29;;;;;;;5.93;1.50;;;;;;;;;;5129793;27;20054;-73
2022/10/19 04:22:59;;;;;;;3.50;1.50;;;;;;;;;;5130122;27;20066;-74
2022/10/19 04:25:29;;;;;;;3.33;1.25;;;;;;;;;;5129726;27;20055;-74
2022/10/19 04:27:59;;;;;;;6.15;1.13;;;;;;;;;;5129664;27;20580;-73
2022/10/19 04:30:28;;;;;;;4.22;1.30;;;;;;;;;;5129749;27;20161;-71
2022/10/19 04:32:58;;;;;;;3.70;1.50;;;;;;;;;;5129912;27;20039;-72
2022/10/19 04:35:28;;;;;;;4.90;1.55;;;;;;;;;;5129558;27;20046;-71
2022/10/19 04:37:59;;;;;;;3.85;1.33;;;;;;;;;;5129655;27;20054;-72
2022/10/19 04:40:28;;;;;;;3.70;1.30;;;;;;;;;;5129289;27;20078;-72
2022/10/19 04:42:58;;;;;;;4.28;1.30;;;;;;;;;;5129166;27;20528;-72
2022/10/19 04:45:28;;;;;;;4.72;1.30;;;;;;;;;;5129272;27;20039;-74
2022/10/19 04:47:57;;;;;;;3.88;1.05;;;;;;;;;;5129669;27;20043;-71
2022/10/19 04:50:27;;;;;;;2.58;1.10;;;;;;;;;;5127464;27;20069;-73
2022/10/19 04:52:57;;;;;;;2.42;1.70;;;;;;;;;;5129203;27;20070;-73
2022/10/19 04:55:27;;;;;;;3.08;1.00;;;;;;;;;;5129352;27;20520;-74
2022/10/19 04:57:56;;;;;;;4.95;1.48;;;;;;;;;;5129197;27;20703;-74
2022/10/19 05:00:26;;;;;;;8.52;1.60;;;;;;;;;;5128943;27;20051;-72
2022/10/19 05:02:56;;;;;;;5.43;1.33;;;;;;;;;;5128970;27;20035;-72
2022/10/19 05:05:26;;;;;;;4.95;1.35;;;;;;;;;;5128338;27;20043;-72
2022/10/19 05:07:56;;;;;;;4.03;1.70;;;;;;;;;;5129427;27;20051;-73
2022/10/19 05:10:26;;;;;;;1.98;1.23;;;;;;;;;;5128807;27;20051;-72
2022/10/19 05:12:56;;;;;;;3.67;1.60;;;;;;;;;;5128976;27;20050;-74
2022/10/19 05:15:25;;;;;;;4.35;1.63;;;;;;;;;;5128905;27;20051;-71
2022/10/19 05:17:56;;;;;;;1.77;1.08;;;;;;;;;;5128798;27;20145;-73
2022/10/19 05:20:26;;;;;;;3.40;1.23;;;;;;;;;;5128962;27;20046;-74
2022/10/19 05:22:55;;;;;;;5.70;1.40;;;;;;;;;;5129087;27;20047;-73
2022/10/19 05:25:25;;;;;;;3.50;1.90;;;;;;;;;;5128649;27;20425;-72
2022/10/19 05:27:55;;;;;;;3.90;1.38;;;;;;;;;;5128504;27;20051;-72
2022/10/19 05:30:25;;;;;;;4.35;1.60;;;;;;;;;;5128957;27;20883;-72
2022/10/19 05:32:55;;;;;;;6.20;1.60;;;;;;;;;;5128358;27;20490;-73
2022/10/19 05:35:25;;;;;;;6.50;1.75;;;;;;;;;;5126960;27;20054;-72
2022/10/19 05:37:55;;;;;;;3.47;1.35;;;;;;;;;;5128258;27;20047;-74
2022/10/19 05:40:24;;;;;;;4.75;1.17;;;;;;;;;;5128037;27;20413;-74
2022/10/19 05:42:54;;;;;;;6.72;1.63;;;;;;;;;;5128190;27;20050;-72
2022/10/19 05:45:24;;;;;;;3.90;1.20;;;;;;;;;;5128074;27;20505;-73
2022/10/19 05:47:54;;;;;;;8.30;1.40;;;;;;;;;;5128087;27;20062;-72
2022/10/19 05:50:24;;;;;;;7.28;1.60;;;;;;;;;;5127990;27;20525;-73
2022/10/19 05:52:54;;;;;;;3.03;1.40;;;;;;;;;;5127841;27;20043;-73
2022/10/19 05:55:23;;;;;;;5.75;1.75;;;;;;;;;;5128916;27;20051;-73
2022/10/19 05:57:53;;;;;;;5.68;2.17;;;;;;;;;;5128318;27;20051;-74
2022/10/19 06:00:23;;;;;;;7.70;1.70;;;;;;;;;;5128171;27;20156;-72
2022/10/19 06:02:52;;;;;;;5.20;1.60;;;;;;;;;;5127787;27;20050;-74
2022/10/19 06:05:27;;;;;;;7.57;1.92;;;;;;;;;;5127791;27;20524;-72
2022/10/19 06:07:56;;;;;;;8.02;1.70;;;;;;;;;;5127478;27;20055;-72
2022/10/19 06:10:26;;;;;;;4.05;1.33;;;;;;;;;;5127560;27;20051;-73
2022/10/19 06:12:56;;;;;;;5.22;1.95;;;;;;;;;;5127814;27;20136;-73
2022/10/19 06:15:25;;;;;;;3.53;1.38;;;;;;;;;;5127405;27;20043;-74
2022/10/19 06:17:55;;;;;;;5.40;1.63;;;;;;;;;;5126836;27;20039;-74
2022/10/19 06:20:27;;;;;;;4.60;1.40;;;;;;;;;;5127503;27;20681;-72
2022/10/19 06:22:58;;;;;;;3.55;1.25;;;;;;;;;;5128678;27;20039;-71
2022/10/19 06:25:29;;;;;;;4.78;1.27;;;;;;;;;;5127581;27;20050;-74
2022/10/19 06:28:00;;;;;;;5.15;1.45;;;;;;;;;;5127042;27;20047;-72
2022/10/19 06:30:30;;;;;;;3.10;1.25;;;;;;;;;;5127800;27;20047;-71
2022/10/19 06:32:59;;;;;;;3.63;1.35;;;;;;;;;;5126902;27;20047;-73
2022/10/19 06:35:34;;;;;;;5.78;1.27;;;;;;;;;;5127538;27;20413;-71
2022/10/19 06:38:04;;;;;;;4.10;1.40;;;;;;;;;;5127195;27;20454;-73
2022/10/19 06:40:34;;;;;;;3.55;1.10;;;;;;;;;;5126986;27;20413;-72
2022/10/19 06:43:05;;;;;;;1.55;1.02;;;;;;;;;;5127457;27;20069;-73
2022/10/19 06:45:37;;;;;;;8.90;1.73;;;;;;;;;;5127277;27;20486;-72
2022/10/19 06:48:07;;;;;;;6.13;1.63;;;;;;;;;;5127466;27;20050;-72
2022/10/19 06:50:37;;;;;;;3.25;1.38;;;;;;;;;;5127097;27;20058;-72
2022/10/19 06:53:07;;;;;;;3.30;1.15;;;;;;;;;;5127652;27;20055;-73
2022/10/19 06:55:37;;;;;;;7.82;1.20;;;;;;;;;;5126507;27;20429;-74
2022/10/19 06:58:06;;;;;;;5.15;1.40;;;;;;;;;;5126660;28;20455;-73
2022/10/19 07:00:36;;;;;;;3.88;1.10;;;;;;;;;;5126901;28;20047;-72
2022/10/19 07:03:06;;;;;;;2.72;1.38;;;;;;;;;;5126804;28;20047;-74
2022/10/19 07:05:35;;;;;;;8.73;1.52;;;;;;;;;;5127118;28;20039;-71
2022/10/19 07:08:07;;;;;;;2.70;1.20;;;;;;;;;;5127225;28;20039;-74
2022/10/19 07:10:37;;;;;;;3.15;1.38;;;;;;;;;;5127085;28;20066;-74
2022/10/19 07:13:07;;;;;;;2.78;1.10;;;;;;;;;;5127036;28;20058;-71
2022/10/19 07:15:37;;;;;;;4.45;1.30;;;;;;;;;;5127053;28;20051;-71
2022/10/19 07:18:08;;;;;;;2.92;1.45;;;;;;;;;;5126942;28;20504;-72
2022/10/19 07:20:37;;;;;;;2.22;1.60;;;;;;;;;;5127041;28;20051;-74
2022/10/19 07:23:07;;;;;;;3.15;1.00;;;;;;;;;;5127042;28;20051;-73
2022/10/19 07:25:37;;;;;;;1.35;1.05;;;;;;;;;;5126929;28;20051;-75
2022/10/19 07:28:07;;;;;;;3.03;0.93;;;;;;;;;;5128075;27;20051;-72
2022/10/19 07:30:38;;;;;;;3.17;1.63;;;;;;;;;;5130942;27;20082;-74
2022/10/19 07:33:07;;;;;;;7.65;1.40;;;;;;;;;;5130794;27;20498;-74
2022/10/19 07:35:37;;;;;;;3.30;1.35;;;;;;;;;;5131056;27;20512;-72
2022/10/19 07:38:07;;;;;;;4.82;0.93;;;;;;;;;;5130898;27;20073;-74
2022/10/19 07:40:38;;;;;;;1.45;0.88;;;;;;;;;;5130721;27;20042;-73
2022/10/19 07:43:14;;;;;;;3.17;1.10;;;;;;;;;;5130388;27;20054;-73
2022/10/19 07:45:44;;;;;;;4.72;1.00;;;;;;;;;;5130322;27;20051;-74
2022/10/19 07:48:15;;;;;;;3.80;1.30;;;;;;;;;;5130403;27;20512;-71
2022/10/19 07:50:47;;;;;;;1.33;0.80;;;;;;;;;;5130302;27;20051;-74
2022/10/19 07:53:18;;;;;;;5.88;1.23;;;;;;;;;;5131180;27;20051;-74
2022/10/19 07:55:48;;;;;;;2.17;1.13;;;;;;;;;;5130462;27;20051;-74
2022/10/19 07:58:17;;;;;;;3.28;0.93;;;;;;;;;;5129988;27;20051;-72
2022/10/19 08:00:47;;;;;;;3.58;1.20;;;;;;;;;;5130525;27;20043;-71
2022/10/19 08:03:17;;;;;;;0.57;0.57;;;;;;;;;;5130334;27;20044;-71
2022/10/19 08:06:12;;;;;;;1.35;0.93;;;;;;;;;;5129921;27;20051;-73
2022/10/19 08:08:43;;;;;;;3.33;1.25;;;;;;;;;;5128781;27;20062;-73
2022/10/19 08:11:14;;;;;;;2.92;1.10;;;;;;;;;;5129801;27;20572;-74
2022/10/19 08:13:45;;;;;;;3.10;1.02;;;;;;;;;;5130026;27;20050;-73
2022/10/19 08:16:21;;;;;;;2.33;1.20;;;;;;;;;;5130041;27;20051;-73
2022/10/19 08:18:52;;;;;;;3.50;1.10;;;;;;;;;;5129849;27;20039;-73
2022/10/19 08:21:22;;;;;;;2.17;1.05;;;;;;;;;;5130189;27;20055;-74
2022/10/19 08:23:52;;;;;;;3.47;0.95;;;;;;;;;;5129836;27;20051;-73
2022/10/19 08:26:22;;;;;;;3.80;1.20;;;;;;;;;;5130424;27;20620;-72
2022/10/19 08:28:52;;;;;;;2.88;1.05;;;;;;;;;;5129813;27;20043;-74
2022/10/19 08:31:22;;;;;;;1.88;0.90;;;;;;;;;;5128960;27;20058;-74
2022/10/19 08:33:52;;;;;;;2.28;0.70;;;;;;;;;;5129121;27;20077;-73
2022/10/19 08:36:22;;;;;;;2.05;0.60;;;;;;;;;;5129822;27;20069;-73
2022/10/19 08:38:52;;;;;;;1.83;0.77;;;;;;;;;;5129099;27;20051;-73
2022/10/19 08:41:22;;;;;;;2.80;0.82;;;;;;;;;;5128527;27;20057;-71
2022/10/19 08:43:59;;;;;;;2.88;1.00;;;;;;;;;;5128497;27;20039;-73
2022/10/19 08:46:36;;;;;;;2.90;1.02;;;;;;;;;;5128870;27;20051;-72
2022/10/19 08:49:11;;;;;;;2.63;1.00;;;;;;;;;;5129355;27;20501;-74
2022/10/19 08:51:44;;;;;;;5.72;2.28;;;;;;;;;;5129276;27;20061;-74
2022/10/19 08:54:17;;;;;;;3.67;1.45;;;;;;;;;;5129507;27;20066;-73
2022/10/19 08:57:03;;;;;;;5.35;1.10;;;;;;;;;;5128830;27;20035;-75
2022/10/19 08:59:48;;;;;;;2.88;1.30;;;;;;;;;;5129021;27;20043;-74
2022/10/19 09:02:45;;;;;;;2.55;1.10;;;;;;;;;;5129458;27;20081;-74
2022/10/19 09:05:45;;;;;;;1.50;1.08;;;;;;;;;;5128728;27;20519;-71
2022/10/19 09:08:16;;;;;;;1.50;1.05;;;;;;;;;;5126315;27;20055;-74
2022/10/19 09:10:50;;;;;;;2.40;1.02;;;;;;;;;;5127849;27;21023;-71
2022/10/19 09:13:36;;;;;;;3.17;0.90;;;;;;;;;;5128916;27;20393;-71
2022/10/19 09:16:26;;;;;;;3.85;1.10;;;;;;;;;;5128970;27;20054;-72
2022/10/19 09:18:56;;;;;;;1.38;0.90;;;;;;;;;;5127379;27;20433;-72
2022/10/19 09:21:38;;;;;;;0.82;0.65;;;;;;;;;;5128627;27;20520;-74
2022/10/19 09:24:45;;;;;;;3.25;0.85;;;;;;;;;;5128730;27;20042;-71
2022/10/19 09:27:33;;;;;;;4.20;0.93;;;;;;;;;;5128294;27;20054;-74
2022/10/19 09:30:14;;;;;;;2.88;1.95;;;;;;;;;;5128694;27;20051;-74
2022/10/19 09:32:45;;;;;;;4.25;1.30;;;;;;;;;;5128459;27;20058;-71
2022/10/19 09:35:40;;;;;;;2.10;1.10;;;;;;;;;;5128675;27;20047;-72
2022/10/19 09:38:13;;;;;;;3.10;0.88;;;;;;;;;;5128656;27;20039;-74
2022/10/19 09:40:43;;;;;;;1.15;0.70;;;;;;;;;;5128243;27;20067;-71
2022/10/19 09:43:20;;;;;;;2.47;0.70;;;;;;;;;;5128093;27;20051;-72
2022/10/19 09:46:01;;;;;;;1.92;0.82;;;;;;;;;;5128361;27;20685;-72
2022/10/19 09:48:50;;;;;;;4.50;1.52;;;;;;;;;;5128332;27;20043;-73
2022/10/19 09:51:21;;;;;;;5.57;1.00;;;;;;;;;;5127312;27;20520;-78
2022/10/19 09:53:54;;;;;;;1.05;0.98;;;;;;;;;;5128192;27;20046;-72
2022/10/19 09:56:26;;;;;;;1.08;0.75;;;;;;;;;;5128096;27;20116;-73
2022/10/19 09:58:58;;;;;;;8.43;0.85;;;;;;;;;;5128743;27;20493;-74
2022/10/19 10:01:39;;;;;;;5.72;3.08;;;;;;;;;;5127714;27;20047;-73
2022/10/19 10:04:17;;;;;;;7.65;1.40;;;;;;;;;;5127991;27;20054;-72
2022/10/19 10:06:48;;;;;;;3.45;1.00;;;;;;;;;;5127940;27;20054;-72
2022/10/19 10:09:23;;;;;;;10.77;1.13;;;;;;;;;;5128102;27;20035;-72
2022/10/19 10:11:56;;;;;;;1.40;0.80;;;;;;;;;;5127952;27;20050;-74
2022/10/19 10:14:33;;;;;;;1.23;0.70;;;;;;;;;;5127847;27;20062;-75
2022/10/19 10:17:11;;;;;;;1.95;0.98;;;;;;;;;;5126384;27;20058;-71
2022/10/19 10:20:04;;;;;;;3.08;1.02;;;;;;;;;;5126448;27;20039;-72
2022/10/19 10:22:36;;;;;;;7.47;2.00;;;;;;;;;;5127546;27;20054;-73
2022/10/19 10:25:17;;;;;;;0.60;0.60;;;;;;;;;;5126265;27;20047;-72
2022/10/19 10:28:18;;;;;;;8.20;2.10;;;;;;;;;;5126356;27;20062;-73
2022/10/19 10:30:52;;;;;;;2.13;0.43;;;;;;;;;;5124652;27;20043;-73
2022/10/19 10:33:26;;;;;;;2.97;1.80;;;;;;;;;;5127735;27;20043;-72
2022/10/19 10:36:14;;;;;;;0.40;0.30;;;;;;;;;;5107205;28;20498;-74
2022/10/19 10:38:48;;;;;;;2.70;1.00;;;;;;;;;;5106497;28;20047;-71
2022/10/19 10:41:22;;;;;;;2.90;1.02;;;;;;;;;;5107066;28;20042;-71
2022/10/19 10:44:01;;;;;;;4.75;0.93;;;;;;;;;;5106582;28;20529;-74
2022/10/19 10:46:42;;;;;;;4.10;0.50;;;;;;;;;;5106563;28;20379;-72
2022/10/19 10:49:43;;;;;;;1.23;0.80;;;;;;;;;;5106499;28;20043;-71
2022/10/19 10:52:16;;;;;;;1.38;0.50;;;;;;;;;;5106310;28;20047;-71
2022/10/19 10:55:19;;;;;;;0.82;0.60;;;;;;;;;;5106554;28;20035;-72
2022/10/19 10:57:53;;;;;;;1.33;0.80;;;;;;;;;;5106472;28;20383;-74
2022/10/19 11:00:24;;;;;;;1.95;0.30;;;;;;;;;;5106511;28;20499;-71
2022/10/19 11:03:40;;;;;;;2.65;0.60;;;;;;;;;;5110877;28;20055;-72
2022/10/19 11:06:11;;;;;;;3.15;0.50;;;;;;;;;;5099711;28;20082;-72
2022/10/19 11:09:23;;;;;;;3.60;0.60;;;;;;;;;;5110800;28;20059;-74
2022/10/19 11:11:54;;;;;;;3.55;0.90;;;;;;;;;;5103436;28;20494;-72
2022/10/19 11:14:33;;;;;;;3.58;1.00;;;;;;;;;;5110455;28;20048;-72
2022/10/19 11:17:16;;;;;;;1.45;0.47;;;;;;;;;;5111245;28;20044;-73
2022/10/19 11:19:46;;;;;;;1.45;0.30;;;;;;;;;;5110486;28;20051;-73
2022/10/19 11:22:30;;;;;;;1.02;0.30;;;;;;;;;;5110393;28;20055;-73
2022/10/19 11:25:42;;;;;;;2.00;0.68;;;;;;;;;;5109974;28;20047;-73
2022/10/19 11:28:32;;;;;;;0.95;0.47;;;;;;;;;;5103838;28;20066;-74
2022/10/19 11:31:31;;;;;;;0.65;0.50;;;;;;;;;;5110108;28;20051;-74
2022/10/19 11:34:07;;;;;;;2.00;0.80;;;;;;;;;;5110490;28;20058;-74
2022/10/19 11:36:52;;;;;;;5.32;0.77;;;;;;;;;;5109175;28;20047;-72
2022/10/19 11:39:37;;;;;;;0.55;0.50;;;;;;;;;;5109989;28;20047;-73
2022/10/19 11:42:15;;;;;;;1.65;1.10;;;;;;;;;;5109987;28;20040;-73
2022/10/19 11:44:46;;;;;;;3.65;0.57;;;;;;;;;;5109959;28;20500;-75
2022/10/19 11:47:34;;;;;;;0.45;0.30;;;;;;;;;;5109898;28;20066;-74
2022/10/19 11:50:13;;;;;;;8.02;1.20;;;;;;;;;;5109916;28;20509;-74
2022/10/19 11:53:22;;;;;;;1.45;0.60;;;;;;;;;;5110467;28;20569;-74
2022/10/19 11:56:03;;;;;;;2.55;0.57;;;;;;;;;;5109887;28;20048;-73
2022/10/19 11:59:03;;;;;;;1.20;0.65;;;;;;;;;;5110223;28;20673;-74
2022/10/19 12:02:04;;;;;;;1.73;0.63;;;;;;;;;;5110191;28;20043;-73
2022/10/19 12:05:11;;;;;;;0.85;0.45;;;;;;;;;;5105645;28;20638;-75
2022/10/19 12:08:19;;;;;;;1.25;0.52;;;;;;;;;;5109520;28;20047;-75
2022/10/19 12:11:22;;;;;;;1.95;0.60;;;;;;;;;;5046244;28;20057;-74
2022/10/19 12:14:02;;;;;;;0.45;0.45;;;;;;;;;;5108756;28;20058;-76
2022/10/19 12:17:09;;;;;;;1.23;0.63;;;;;;;;;;5109351;28;20054;-74
2022/10/19 12:19:45;;;;;;;0.55;0.52;;;;;;;;;;5108193;28;20047;-75
2022/10/19 12:22:21;;;;;;;2.15;0.43;;;;;;;;;;5107364;28;20054;-75
2022/10/19 12:24:54;;;;;;;3.13;0.85;;;;;;;;;;5109210;28;20047;-76
2022/10/19 12:27:33;;;;;;;1.13;0.47;;;;;;;;;;5109283;28;20050;-74
2022/10/19 12:30:08;;;;;;;1.75;0.75;;;;;;;;;;5109686;28;20058;-73
2022/10/19 12:33:00;;;;;;;6.80;0.90;;;;;;;;;;5109396;28;20043;-76
2022/10/19 12:35:49;;;;;;;1.83;0.40;;;;;;;;;;5109258;28;20050;-75
2022/10/19 12:38:33;;;;;;;1.70;0.60;;;;;;;;;;5109077;28;20039;-76
2022/10/19 12:41:26;;;;;;;7.45;1.30;;;;;;;;;;5109490;28;20039;-71
2022/10/19 12:44:05;;;;;;;2.20;1.05;;;;;;;;;;5108594;28;20054;-71
2022/10/19 12:46:44;;;;;;;2.38;0.60;;;;;;;;;;5108693;28;20399;-71
2022/10/19 12:49:26;;;;;;;3.30;0.70;;;;;;;;;;5109146;28;20157;-73
2022/10/19 12:51:59;;;;;;;0.95;0.60;;;;;;;;;;5108455;28;20062;-72
2022/10/19 12:54:35;;;;;;;2.53;0.68;;;;;;;;;;5108744;28;20040;-71
2022/10/19 12:57:25;;;;;;;1.17;0.70;;;;;;;;;;5109353;28;20055;-71
2022/10/19 13:00:03;;;;;;;3.38;1.30;;;;;;;;;;5108732;28;20032;-72
2022/10/19 13:02:37;;;;;;;2.67;1.00;;;;;;;;;;5108572;28;20036;-74
2022/10/19 13:05:18;;;;;;;3.30;0.63;;;;;;;;;;5108273;28;20529;-71
2022/10/19 13:07:50;;;;;;;1.58;0.77;;;;;;;;;;5107490;28;20066;-73
2022/10/19 13:10:24;;;;;;;1.17;0.65;;;;;;;;;;5108225;28;20048;-73
2022/10/19 13:12:55;;;;;;;1.05;0.80;;;;;;;;;;5108177;28;20082;-73
2022/10/19 13:15:33;;;;;;;2.30;0.70;;;;;;;;;;5108191;28;20039;-75
2022/10/19 13:18:15;;;;;;;1.70;0.80;;;;;;;;;;5108404;28;20054;-73
2022/10/19 13:20:51;;;;;;;3.75;0.82;;;;;;;;;;5108505;28;20044;-73
2022/10/19 13:23:31;;;;;;;3.38;0.73;;;;;;;;;;5107786;28;20051;-75
2022/10/19 13:26:28;;;;;;;3.03;0.93;;;;;;;;;;5107755;28;20145;-74
2022/10/19 13:28:59;;;;;;;1.85;0.70;;;;;;;;;;5107968;28;20044;-75
2022/10/19 13:31:31;;;;;;;2.90;0.80;;;;;;;;;;5108240;28;20051;-78
2022/10/19 13:34:10;;;;;;;7.15;0.80;;;;;;;;;;5107768;28;20052;-74
2022/10/19 13:36:59;;;;;;;0.80;0.65;;;;;;;;;;5108431;28;20051;-77
2022/10/19 13:39:30;;;;;;;2.08;0.88;;;;;;;;;;5105958;28;20048;-73
2022/10/19 13:41:59;;;;;;;1.67;0.82;;;;;;;;;;5107737;28;20048;-75
2022/10/19 13:44:34;;;;;;;5.38;0.80;;;;;;;;;;5107312;28;20047;-75
2022/10/19 13:47:21;;;;;;;3.42;1.13;;;;;;;;;;5107798;28;20059;-77
2022/10/19 13:50:32;;;;;;;5.45;0.93;;;;;;;;;;5106204;28;20208;-74
2022/10/19 13:53:25;;;;;;;3.10;0.88;;;;;;;;;;5044450;28;20053;-71
2022/10/19 13:56:17;;;;;;;1.10;0.70;;;;;;;;;;5106069;28;20059;-72
2022/10/19 13:59:10;;;;;;;2.72;0.73;;;;;;;;;;5107674;28;20055;-71
2022/10/19 14:02:22;;;;;;;3.03;1.10;;;;;;;;;;5107123;28;20062;-73
2022/10/19 14:05:10;;;;;;;;;;;;;;;;;;5101085;28;20063;-74
2022/10/19 14:07:48;;;;;;;2.47;0.73;;;;;;;;;;5107301;28;19930;-72
2022/10/19 14:10:20;;;;;;;1.73;0.68;;;;;;;;;;5107254;28;20529;-72
2022/10/19 14:13:04;;;;;;;1.50;0.90;;;;;;;;;;5106933;28;20043;-73
2022/10/19 14:15:34;;;;;;;1.60;0.70;;;;;;;;;;5107122;28;20042;-71
2022/10/19 14:18:26;;;;;;;4.43;0.90;;;;;;;;;;5107304;28;20113;-74
2022/10/19 14:21:07;;;;;;;2.65;0.85;;;;;;;;;;5107312;28;20066;-72
2022/10/19 14:23:39;;;;;;;2.83;0.90;;;;;;;;;;5107361;28;20040;-74
2022/10/19 14:26:18;;;;;;;5.57;1.05;;;;;;;;;;5107305;28;20071;-74
2022/10/19 14:28:53;;;;;;;1.95;0.75;;;;;;;;;;5107386;28;20068;-72
2022/10/19 14:31:24;;;;;;;;;;;;;;;;;;5107478;28;20047;-73
2022/10/19 14:34:00;;;;;;;2.17;0.82;;;;;;;;;;5106707;28;19924;-72
2022/10/19 14:36:35;;;;;;;1.23;0.80;;;;;;;;;;5105234;28;20481;-72
2022/10/19 14:39:06;;;;;;;2.10;0.88;;;;;;;;;;5106978;28;20043;-72
2022/10/19 14:41:36;;;;;;;0.68;0.57;;;;;;;;;;5106791;28;20074;-72
2022/10/19 14:44:33;;;;;;;1.88;0.82;;;;;;;;;;5106413;28;20050;-74
2022/10/19 14:47:18;;;;;;;4.03;0.80;;;;;;;;;;5106945;28;20051;-76
2022/10/19 14:49:49;;;;;;;2.28;0.85;;;;;;;;;;5106323;28;20405;-72
2022/10/19 14:52:31;;;;;;;2.33;0.75;;;;;;;;;;5106870;28;20054;-75
2022/10/19 14:55:10;;;;;;;2.28;1.13;;;;;;;;;;5106933;28;20062;-74
2022/10/19 14:57:47;;;;;;;1.88;0.90;;;;;;;;;;5107298;28;20039;-73
2022/10/19 15:00:21;;;;;;;3.65;0.80;;;;;;;;;;5106962;28;20047;-72
2022/10/19 15:03:04;;;;;;;1.15;0.73;;;;;;;;;;5106622;28;20044;-73
2022/10/19 15:05:39;;;;;;;1.02;0.70;;;;;;;;;;5106218;28;20043;-74
2022/10/19 15:08:10;;;;;;;;;;;;;;;;;;5107066;28;20062;-73
2022/10/19 15:10:44;;;;;;;1.95;0.70;;;;;;;;;;5106449;28;19938;-72
2022/10/19 15:13:40;;;;;;;0.73;0.63;;;;;;;;;;5106632;28;20051;-74
2022/10/19 15:16:39;;;;;;;2.88;0.80;;;;;;;;;;5100565;28;20068;-73
2022/10/19 15:19:27;;;;;;;1.20;0.65;;;;;;;;;;5106696;28;20044;-73
2022/10/19 15:22:06;;;;;;;;;;;;;;;;;;5106475;28;20113;-73
2022/10/19 15:24:36;;;;;;;2.38;0.85;;;;;;;;;;5106434;28;20548;-74
2022/10/19 15:27:18;;;;;;;2.60;1.20;;;;;;;;;;5106393;28;20054;-73
2022/10/19 15:29:55;;;;;;;5.05;1.35;;;;;;;;;;5106290;28;20521;-71
2022/10/19 15:32:36;;;;;;;8.70;1.38;;;;;;;;;;5106966;28;20449;-73
2022/10/19 15:35:30;;;;;;;2.63;1.05;;;;;;;;;;5106555;28;20052;-73
2022/10/19 15:38:13;;;;;;;1.67;0.60;;;;;;;;;;5106358;28;20039;-72